Time;durP1;ratioP1;P1;durP2;ratioP2;P2;SDS_P1;SDS_P2;PMS_P1;PMS_P2;Temp;Humidity;BMP_temperature;BMP_pressure;BME280_temperature;BME280_humidity;BME280_pressure;Samples;Min_cycle;Max_cycle;Signal;HPM_P1;HPM_P2
2023/02/23 00:01:38;;;;;;;21.83;15.50;;;;;;;;;;5039334;28;20242;-61
2023/02/23 00:04:06;;;;;;;24.97;14.67;;;;;;;;;;5039194;28;20572;-61
2023/02/23 00:06:35;;;;;;;29.23;15.67;;;;;;;;;;5039645;28;20211;-61
2023/02/23 00:09:09;;;;;;;23.83;15.60;;;;;;;;;;5039641;28;20211;-61
2023/02/23 00:11:37;;;;;;;23.73;15.70;;;;;;;;;;5039451;28;20229;-61
2023/02/23 00:14:07;;;;;;;26.37;15.33;;;;;;;;;;5039485;28;20227;-61
2023/02/23 00:16:36;;;;;;;23.80;14.43;;;;;;;;;;5039571;28;20217;-60
2023/02/23 00:19:06;;;;;;;21.73;14.33;;;;;;;;;;5040756;28;20552;-61
2023/02/23 00:21:35;;;;;;;20.23;14.67;;;;;;;;;;5047613;28;20207;-61
2023/02/23 00:24:04;;;;;;;24.13;15.60;;;;;;;;;;5038941;28;20275;-61
2023/02/23 00:26:33;;;;;;;22.87;15.27;;;;;;;;;;5045962;28;20233;-61
2023/02/23 00:29:02;;;;;;;27.20;16.37;;;;;;;;;;5059180;28;20211;-60
2023/02/23 00:31:32;;;;;;;23.67;15.60;;;;;;;;;;5059006;28;20207;-61
2023/02/23 00:34:02;;;;;;;24.27;14.57;;;;;;;;;;5058957;28;20265;-60
2023/02/23 00:36:30;;;;;;;25.80;15.13;;;;;;;;;;5058674;28;20242;-61
2023/02/23 00:39:00;;;;;;;25.73;14.90;;;;;;;;;;5054583;28;20207;-61
2023/02/23 00:41:28;;;;;;;24.43;15.30;;;;;;;;;;5038842;28;20698;-61
2023/02/23 00:43:57;;;;;;;24.83;15.47;;;;;;;;;;5038632;28;20291;-61
2023/02/23 00:46:26;;;;;;;26.00;15.53;;;;;;;;;;5038660;28;20758;-61
2023/02/23 00:48:58;;;;;;;26.80;15.73;;;;;;;;;;5038600;28;20692;-61
2023/02/23 00:51:29;;;;;;;23.07;15.33;;;;;;;;;;5038421;28;20243;-61
2023/02/23 00:53:58;;;;;;;27.43;15.70;;;;;;;;;;5038577;28;20227;-61
2023/02/23 00:56:26;;;;;;;25.07;15.57;;;;;;;;;;5038494;28;20577;-61
2023/02/23 00:58:55;;;;;;;23.13;14.77;;;;;;;;;;5038769;28;20211;-61
2023/02/23 01:01:23;;;;;;;24.73;16.57;;;;;;;;;;5038341;28;20203;-61
2023/02/23 01:03:51;;;;;;;22.07;15.03;;;;;;;;;;5038607;28;20228;-61
2023/02/23 01:06:21;;;;;;;28.60;15.80;;;;;;;;;;5038072;28;20223;-61
2023/02/23 01:08:50;;;;;;;25.77;16.00;;;;;;;;;;5038340;28;20212;-61
2023/02/23 01:11:20;;;;;;;23.47;15.73;;;;;;;;;;5038480;28;20207;-61
2023/02/23 01:13:48;;;;;;;23.30;15.70;;;;;;;;;;5037618;28;20228;-61
2023/02/23 01:16:18;;;;;;;24.13;15.53;;;;;;;;;;5038208;28;20294;-61
2023/02/23 01:18:47;;;;;;;24.77;16.10;;;;;;;;;;5038515;28;20238;-61
2023/02/23 01:21:16;;;;;;;30.77;16.37;;;;;;;;;;5039631;28;20208;-61
2023/02/23 01:23:46;;;;;;;28.53;18.73;;;;;;;;;;5038041;28;20770;-61
2023/02/23 01:26:18;;;;;;;27.33;17.53;;;;;;;;;;5038101;28;20242;-61
2023/02/23 01:28:48;;;;;;;30.67;17.97;;;;;;;;;;5055385;28;20217;-61
2023/02/23 01:31:16;;;;;;;28.57;17.83;;;;;;;;;;5057889;28;20555;-61
2023/02/23 01:33:45;;;;;;;29.10;17.93;;;;;;;;;;5057656;28;20574;-61
2023/02/23 01:36:13;;;;;;;30.20;17.93;;;;;;;;;;5057341;28;20253;-61
2023/02/23 01:38:41;;;;;;;23.43;16.97;;;;;;;;;;5052497;28;20210;-61
2023/02/23 01:41:11;;;;;;;29.03;17.53;;;;;;;;;;5037891;28;20663;-61
2023/02/23 01:43:54;;;;;;;25.23;16.97;;;;;;;;;;5040854;28;20291;-61
2023/02/23 01:46:22;;;;;;;26.23;16.23;;;;;;;;;;5037861;28;20298;-61
2023/02/23 01:48:51;;;;;;;28.67;16.73;;;;;;;;;;5037982;28;20215;-61
2023/02/23 01:51:20;;;;;;;24.20;15.63;;;;;;;;;;5037570;28;20207;-61
2023/02/23 01:53:49;;;;;;;25.90;16.50;;;;;;;;;;5037861;28;20231;-61
2023/02/23 01:56:21;;;;;;;25.50;17.27;;;;;;;;;;5041834;28;20195;-61
2023/02/23 01:58:51;;;;;;;28.10;16.47;;;;;;;;;;5045978;28;20199;-61
2023/02/23 02:01:20;;;;;;;26.43;16.27;;;;;;;;;;5046024;28;20722;-61
2023/02/23 02:03:50;;;;;;;30.00;16.50;;;;;;;;;;5045070;28;20222;-61
2023/02/23 02:06:19;;;;;;;24.50;15.13;;;;;;;;;;5042099;28;20326;-62
2023/02/23 02:08:49;;;;;;;24.40;16.07;;;;;;;;;;5052936;28;20578;-61
2023/02/23 02:11:29;;;;;;;23.83;16.57;;;;;;;;;;5050187;28;20667;-61
2023/02/23 02:13:59;;;;;;;24.70;15.67;;;;;;;;;;5048856;28;20222;-61
2023/02/23 02:16:35;;;;;;;25.27;15.93;;;;;;;;;;5047012;28;20692;-61
2023/02/23 02:19:21;;;;;;;24.53;16.20;;;;;;;;;;5047478;28;20211;-61
2023/02/23 02:22:07;;;;;;;24.63;16.37;;;;;;;;;;5046389;28;20230;-61
2023/02/23 02:24:57;;;;;;;22.40;14.67;;;;;;;;;;5046804;28;20214;-61
2023/02/23 02:27:33;;;;;;;23.40;15.90;;;;;;;;;;5052832;28;20223;-61
2023/02/23 02:30:23;;;;;;;23.70;16.07;;;;;;;;;;5050474;28;20241;-61
2023/02/23 02:33:03;;;;;;;28.13;17.23;;;;;;;;;;5049829;28;20219;-61
2023/02/23 02:36:00;;;;;;;26.00;16.17;;;;;;;;;;5060187;28;20237;-61
2023/02/23 02:38:34;;;;;;;25.63;16.57;;;;;;;;;;5057416;28;20235;-61
2023/02/23 02:41:04;;;;;;;28.10;16.80;;;;;;;;;;5041119;28;20213;-61
2023/02/23 02:43:35;;;;;;;21.70;15.47;;;;;;;;;;5041154;28;20255;-61
2023/02/23 02:46:07;;;;;;;27.77;16.13;;;;;;;;;;5041244;28;20231;-61
2023/02/23 02:48:37;;;;;;;24.50;15.73;;;;;;;;;;5041253;28;20239;-61
2023/02/23 02:51:09;;;;;;;25.13;16.07;;;;;;;;;;5040707;28;20246;-61
2023/02/23 02:53:42;;;;;;;25.23;15.37;;;;;;;;;;5044229;28;20250;-61
2023/02/23 02:56:11;;;;;;;25.00;15.70;;;;;;;;;;5041002;28;20263;-61
2023/02/23 02:58:42;;;;;;;28.90;16.90;;;;;;;;;;5041032;28;20246;-61
2023/02/23 04:19:11;;;;;;;24.73;15.50;;;;;;;;;;5058842;28;20824;-61
2023/02/23 04:21:39;;;;;;;20.53;15.47;;;;;;;;;;5047474;28;20271;-61
2023/02/23 04:24:07;;;;;;;22.17;14.57;;;;;;;;;;5039261;28;20255;-61
2023/02/23 04:26:35;;;;;;;25.20;16.43;;;;;;;;;;5039302;28;20311;-62
2023/02/23 04:29:03;;;;;;;24.43;16.23;;;;;;;;;;5055770;28;20203;-61
2023/02/23 04:31:31;;;;;;;20.03;13.93;;;;;;;;;;5058920;28;20213;-61
2023/02/23 04:34:00;;;;;;;21.77;14.80;;;;;;;;;;5058509;28;20244;-61
2023/02/23 04:36:28;;;;;;;21.00;13.93;;;;;;;;;;5058537;28;20227;-62
2023/02/23 04:38:56;;;;;;;24.13;15.13;;;;;;;;;;5059019;28;20234;-62
2023/02/23 04:41:24;;;;;;;23.43;14.37;;;;;;;;;;5040090;28;20214;-62
2023/02/23 04:43:52;;;;;;;24.97;15.33;;;;;;;;;;5039012;28;20231;-62
2023/02/23 04:46:20;;;;;;;22.70;14.73;;;;;;;;;;5038920;28;20259;-61
2023/02/23 04:48:48;;;;;;;20.77;13.37;;;;;;;;;;5038418;28;20253;-62
2023/02/23 04:51:17;;;;;;;22.27;15.90;;;;;;;;;;5038449;28;20231;-62
2023/02/23 04:53:46;;;;;;;21.33;14.90;;;;;;;;;;5038728;28;20235;-62
2023/02/23 04:56:14;;;;;;;22.10;13.87;;;;;;;;;;5038922;28;20211;-62
2023/02/23 04:58:42;;;;;;;26.40;14.47;;;;;;;;;;5038534;28;20578;-62
2023/02/23 05:01:10;;;;;;;22.77;15.20;;;;;;;;;;5038809;28;20246;-62
2023/02/23 05:03:38;;;;;;;23.03;15.30;;;;;;;;;;5038448;28;20232;-63
2023/02/23 05:06:06;;;;;;;19.90;13.70;;;;;;;;;;5038006;28;20208;-63
2023/02/23 05:08:35;;;;;;;25.53;14.87;;;;;;;;;;5038094;28;20235;-62
2023/02/23 05:11:03;;;;;;;22.97;15.37;;;;;;;;;;5038644;28;20294;-62
2023/02/23 05:13:31;;;;;;;24.13;14.97;;;;;;;;;;5038386;28;20234;-63
2023/02/23 05:15:59;;;;;;;20.97;14.40;;;;;;;;;;5038219;28;20597;-62
2023/02/23 05:18:28;;;;;;;23.50;14.73;;;;;;;;;;5038327;28;20257;-64
2023/02/23 05:21:01;;;;;;;20.97;15.73;;;;;;;;;;5044449;28;20211;-64
2023/02/23 05:23:30;;;;;;;24.57;14.33;;;;;;;;;;5037952;28;20223;-64
2023/02/23 05:26:05;;;;;;;22.60;14.07;;;;;;;;;;5043491;28;20203;-64
2023/02/23 05:28:34;;;;;;;29.80;15.13;;;;;;;;;;5046963;28;20657;-64
2023/02/23 05:31:03;;;;;;;24.83;16.57;;;;;;;;;;5045084;28;20208;-64
2023/02/23 05:33:31;;;;;;;23.90;14.77;;;;;;;;;;5044803;28;20718;-64
2023/02/23 05:35:59;;;;;;;26.13;15.73;;;;;;;;;;5047023;28;20235;-64
2023/02/23 05:38:27;;;;;;;27.60;14.97;;;;;;;;;;5045817;28;20671;-64
2023/02/23 05:40:55;;;;;;;23.07;15.60;;;;;;;;;;5046581;28;20202;-64
2023/02/23 05:43:25;;;;;;;27.43;16.00;;;;;;;;;;5044559;28;20228;-65
2023/02/23 05:45:53;;;;;;;19.13;14.00;;;;;;;;;;5046286;28;20604;-64
2023/02/23 05:48:22;;;;;;;21.47;14.00;;;;;;;;;;5043091;28;20258;-64
2023/02/23 05:50:50;;;;;;;23.30;14.97;;;;;;;;;;5037317;28;20263;-65
2023/02/23 05:53:18;;;;;;;26.17;15.73;;;;;;;;;;5037871;28;20238;-64
2023/02/23 05:55:46;;;;;;;25.97;16.60;;;;;;;;;;5037723;28;20689;-65
2023/02/23 05:58:15;;;;;;;22.77;15.00;;;;;;;;;;5037915;28;20203;-65
2023/02/23 06:00:44;;;;;;;20.87;14.47;;;;;;;;;;5037261;28;20215;-64
2023/02/23 06:03:12;;;;;;;22.47;15.73;;;;;;;;;;5037505;28;20245;-65
2023/02/23 06:05:41;;;;;;;25.03;14.90;;;;;;;;;;5037135;28;20710;-65
2023/02/23 06:08:09;;;;;;;28.27;15.43;;;;;;;;;;5037797;28;20227;-65
2023/02/23 06:10:36;;;;;;;28.07;16.13;;;;;;;;;;5037780;28;20211;-64
2023/02/23 06:13:04;;;;;;;23.07;15.13;;;;;;;;;;5037405;28;20230;-64
2023/02/23 06:15:32;;;;;;;22.90;14.97;;;;;;;;;;5037344;28;20207;-64
2023/02/23 06:18:02;;;;;;;24.27;15.30;;;;;;;;;;5037758;28;20243;-64
2023/02/23 06:20:30;;;;;;;22.17;14.80;;;;;;;;;;5048164;28;20238;-64
2023/02/23 06:22:58;;;;;;;21.57;14.33;;;;;;;;;;5037437;28;20295;-64
2023/02/23 06:25:26;;;;;;;21.03;14.13;;;;;;;;;;5037563;28;20200;-64
2023/02/23 06:27:54;;;;;;;23.33;16.00;;;;;;;;;;5047386;28;20233;-64
2023/02/23 06:30:22;;;;;;;20.73;15.27;;;;;;;;;;5055930;28;20566;-65
2023/02/23 06:32:50;;;;;;;19.87;14.23;;;;;;;;;;5057174;28;20231;-64
2023/02/23 06:35:20;;;;;;;23.90;14.43;;;;;;;;;;5056860;28;20603;-64
2023/02/23 06:37:47;;;;;;;28.87;16.27;;;;;;;;;;5057254;28;20203;-64
2023/02/23 06:40:16;;;;;;;25.73;16.63;;;;;;;;;;5047189;28;20203;-64
2023/02/23 06:42:44;;;;;;;21.63;15.17;;;;;;;;;;5037081;28;20602;-64
2023/02/23 06:45:12;;;;;;;22.57;16.07;;;;;;;;;;5037217;28;20231;-66
2023/02/23 06:47:40;;;;;;;19.53;14.40;;;;;;;;;;5037306;28;20234;-64
2023/02/23 06:50:09;;;;;;;20.00;13.73;;;;;;;;;;5036898;28;20211;-64
2023/02/23 06:52:38;;;;;;;23.73;15.20;;;;;;;;;;5038034;28;20204;-65
2023/02/23 06:55:07;;;;;;;26.23;14.77;;;;;;;;;;5045511;28;20216;-65
2023/02/23 06:57:35;;;;;;;20.97;14.17;;;;;;;;;;5046350;28;20223;-64
2023/02/23 07:00:03;;;;;;;21.33;13.73;;;;;;;;;;5045338;28;20286;-64
2023/02/23 07:02:31;;;;;;;21.80;14.83;;;;;;;;;;5050280;28;20204;-64
2023/02/23 07:04:59;;;;;;;21.77;13.77;;;;;;;;;;5043141;28;20207;-64
2023/02/23 07:07:28;;;;;;;21.43;14.13;;;;;;;;;;5037043;28;20243;-64
2023/02/23 07:09:57;;;;;;;22.77;14.97;;;;;;;;;;5036859;28;20560;-64
2023/02/23 07:12:25;;;;;;;21.00;14.93;;;;;;;;;;5038111;28;20207;-65
2023/02/23 07:14:53;;;;;;;20.63;14.70;;;;;;;;;;5048294;28;20221;-64
2023/02/23 07:17:21;;;;;;;24.93;15.53;;;;;;;;;;5048371;28;20230;-63
2023/02/23 07:19:49;;;;;;;20.67;13.97;;;;;;;;;;5045674;28;20267;-63
2023/02/23 07:22:17;;;;;;;25.27;15.03;;;;;;;;;;5040610;28;20238;-63
2023/02/23 07:24:45;;;;;;;26.00;15.40;;;;;;;;;;5040090;28;20227;-65
2023/02/23 07:27:14;;;;;;;22.37;14.73;;;;;;;;;;5042336;28;20575;-64
2023/02/23 07:29:42;;;;;;;21.30;14.17;;;;;;;;;;5052769;28;20235;-62
2023/02/23 07:32:10;;;;;;;24.83;15.17;;;;;;;;;;5040248;28;20247;-62
2023/02/23 07:34:39;;;;;;;25.63;15.67;;;;;;;;;;5044114;28;20233;-63
2023/02/23 07:37:07;;;;;;;24.70;15.40;;;;;;;;;;5060163;28;20237;-64
2023/02/23 07:39:35;;;;;;;22.47;15.30;;;;;;;;;;5051636;28;20211;-63
2023/02/23 07:42:03;;;;;;;30.23;16.43;;;;;;;;;;5039900;28;20660;-64
2023/02/23 07:44:36;;;;;;;28.37;18.20;;;;;;;;;;5040184;28;20236;-64
2023/02/23 07:47:05;;;;;;;22.10;16.73;;;;;;;;;;5039944;28;20660;-64
2023/02/23 07:49:33;;;;;;;23.03;15.97;;;;;;;;;;5039672;28;20255;-64
2023/02/23 07:52:01;;;;;;;25.23;16.47;;;;;;;;;;5040022;28;20199;-64
2023/02/23 07:54:29;;;;;;;23.17;15.50;;;;;;;;;;5047813;28;20227;-64
2023/02/23 07:56:58;;;;;;;23.53;16.07;;;;;;;;;;5056519;28;20293;-64
2023/02/23 07:59:26;;;;;;;26.33;15.60;;;;;;;;;;5048777;28;20566;-64
2023/02/23 08:01:55;;;;;;;28.27;17.33;;;;;;;;;;5039491;28;20208;-64
2023/02/23 08:04:23;;;;;;;24.87;15.77;;;;;;;;;;5039245;28;20231;-64
2023/02/23 08:06:52;;;;;;;23.07;16.70;;;;;;;;;;5039162;28;20207;-64
2023/02/23 08:09:20;;;;;;;24.43;16.40;;;;;;;;;;5039004;28;20231;-65
2023/02/23 08:11:49;;;;;;;30.00;16.43;;;;;;;;;;5049569;28;20199;-64
2023/02/23 08:14:20;;;;;;;25.33;18.10;;;;;;;;;;5056138;28;20230;-64
2023/02/23 08:16:48;;;;;;;32.67;16.43;;;;;;;;;;5059238;28;20292;-64
2023/02/23 08:19:21;;;;;;;26.73;17.10;;;;;;;;;;5058768;28;20238;-64
2023/02/23 08:21:49;;;;;;;30.60;17.70;;;;;;;;;;5039137;28;20207;-64
2023/02/23 08:24:18;;;;;;;34.43;17.93;;;;;;;;;;5056084;28;20223;-64
2023/02/23 08:26:46;;;;;;;30.20;19.50;;;;;;;;;;5052966;28;20256;-64
2023/02/23 08:29:14;;;;;;;27.37;18.33;;;;;;;;;;5058726;28;20258;-64
2023/02/23 08:31:42;;;;;;;31.63;19.20;;;;;;;;;;5058471;28;20209;-64
2023/02/23 08:34:10;;;;;;;30.97;18.57;;;;;;;;;;5057816;28;20580;-64
2023/02/23 08:36:40;;;;;;;29.57;20.10;;;;;;;;;;5058702;28;20234;-64
2023/02/23 08:39:12;;;;;;;31.10;19.27;;;;;;;;;;5057664;28;20199;-64
2023/02/23 08:41:40;;;;;;;31.03;19.53;;;;;;;;;;5058757;28;20253;-64
2023/02/23 08:44:08;;;;;;;30.83;19.80;;;;;;;;;;5058091;28;20219;-64
2023/02/23 08:46:36;;;;;;;31.50;18.60;;;;;;;;;;5058331;28;20207;-64
2023/02/23 08:49:05;;;;;;;32.90;19.13;;;;;;;;;;5053473;28;20220;-64
2023/02/23 08:51:34;;;;;;;34.30;19.20;;;;;;;;;;5038385;28;20214;-64
2023/02/23 08:54:03;;;;;;;30.30;17.93;;;;;;;;;;5044657;28;20266;-64
2023/02/23 08:56:32;;;;;;;32.83;18.57;;;;;;;;;;5058304;28;20207;-64
2023/02/23 08:59:00;;;;;;;33.83;18.73;;;;;;;;;;5058189;28;20236;-64
2023/02/23 09:01:28;;;;;;;32.10;19.17;;;;;;;;;;5058291;28;20268;-64
2023/02/23 09:03:56;;;;;;;37.77;20.47;;;;;;;;;;5057485;28;20254;-64
2023/02/23 09:06:25;;;;;;;40.20;20.30;;;;;;;;;;5043622;28;20265;-63
2023/02/23 09:08:54;;;;;;;35.33;19.73;;;;;;;;;;5038065;28;20633;-63
2023/02/23 09:11:24;;;;;;;30.30;18.70;;;;;;;;;;5038279;28;20294;-64
2023/02/23 09:13:52;;;;;;;32.70;19.53;;;;;;;;;;5038133;28;20270;-63
2023/02/23 09:16:20;;;;;;;27.80;17.53;;;;;;;;;;5037893;28;20643;-63
2023/02/23 09:18:48;;;;;;;29.47;18.63;;;;;;;;;;5045589;28;20651;-63
2023/02/23 09:21:23;;;;;;;34.13;19.27;;;;;;;;;;5046357;28;20207;-63
2023/02/23 09:23:54;;;;;;;30.37;18.43;;;;;;;;;;5046562;28;20222;-63
2023/02/23 09:26:25;;;;;;;30.23;19.37;;;;;;;;;;5045944;28;20660;-64
2023/02/23 09:28:53;;;;;;;35.60;19.47;;;;;;;;;;5044115;28;20262;-64
2023/02/23 09:31:22;;;;;;;34.57;19.60;;;;;;;;;;5038161;28;20204;-64
2023/02/23 09:33:51;;;;;;;33.20;19.10;;;;;;;;;;5037819;28;20323;-63
2023/02/23 09:36:20;;;;;;;33.67;20.50;;;;;;;;;;5036982;28;20274;-63
2023/02/23 09:38:51;;;;;;;33.57;20.13;;;;;;;;;;5043819;28;21759;-64
2023/02/23 09:41:37;;;;;;;38.53;19.10;;;;;;;;;;5045743;28;20252;-64
2023/02/23 09:44:12;;;;;;;35.30;20.77;;;;;;;;;;5037805;28;20259;-64
2023/02/23 09:46:44;;;;;;;35.03;19.50;;;;;;;;;;5046843;28;20209;-64
2023/02/23 09:49:15;;;;;;;29.83;19.77;;;;;;;;;;5044880;28;20277;-64
2023/02/23 09:51:47;;;;;;;30.30;19.63;;;;;;;;;;5046763;28;20635;-64
2023/02/23 09:54:17;;;;;;;36.20;19.90;;;;;;;;;;5046367;28;20233;-64
2023/02/23 09:56:46;;;;;;;34.80;20.13;;;;;;;;;;5044007;28;20203;-64
2023/02/23 09:59:17;;;;;;;39.77;20.37;;;;;;;;;;5046327;28;20231;-64
2023/02/23 10:01:52;;;;;;;36.13;20.67;;;;;;;;;;5045708;28;20285;-64
2023/02/23 10:04:22;;;;;;;36.37;20.33;;;;;;;;;;5048177;28;20218;-64
2023/02/23 10:06:53;;;;;;;38.70;21.60;;;;;;;;;;5049733;28;20567;-64
2023/02/23 10:09:24;;;;;;;33.60;19.83;;;;;;;;;;5047764;28;20305;-64
2023/02/23 10:11:56;;;;;;;40.77;22.23;;;;;;;;;;5050451;28;20543;-64
2023/02/23 10:14:35;;;;;;;39.90;22.83;;;;;;;;;;5048348;28;20227;-64
2023/02/23 10:17:13;;;;;;;41.30;22.23;;;;;;;;;;5047747;28;20724;-64
2023/02/23 10:19:44;;;;;;;37.30;22.77;;;;;;;;;;5044833;28;20647;-64
2023/02/23 10:22:14;;;;;;;37.63;20.67;;;;;;;;;;5037247;28;20204;-64
2023/02/23 10:24:44;;;;;;;36.83;21.80;;;;;;;;;;5037403;28;20259;-64
2023/02/23 10:27:15;;;;;;;37.47;22.43;;;;;;;;;;5039493;28;20210;-64
2023/02/23 10:29:47;;;;;;;41.90;23.10;;;;;;;;;;5050088;28;20225;-63
2023/02/23 10:32:18;;;;;;;36.77;21.57;;;;;;;;;;5040963;28;20226;-64
2023/02/23 10:34:47;;;;;;;39.50;22.40;;;;;;;;;;5040013;28;20246;-64
2023/02/23 10:37:16;;;;;;;33.97;20.43;;;;;;;;;;5036994;28;20671;-64
2023/02/23 10:39:45;;;;;;;35.13;21.97;;;;;;;;;;5043918;28;20200;-63
2023/02/23 10:42:15;;;;;;;107.53;61.97;;;;;;;;;;5037115;28;20207;-63
2023/02/23 10:44:45;;;;;;;56.70;32.23;;;;;;;;;;5047698;28;20790;-64
2023/02/23 10:47:15;;;;;;;42.13;22.80;;;;;;;;;;5053851;28;20242;-65
2023/02/23 10:49:45;;;;;;;38.93;22.43;;;;;;;;;;5041983;28;20246;-63
2023/02/23 10:52:14;;;;;;;34.10;21.80;;;;;;;;;;5051482;28;20211;-64
2023/02/23 10:54:44;;;;;;;39.90;21.97;;;;;;;;;;5050888;28;20306;-64
2023/02/23 10:57:19;;;;;;;40.60;20.93;;;;;;;;;;5048803;28;20659;-63
2023/02/23 11:00:00;;;;;;;33.40;19.60;;;;;;;;;;5040726;28;20253;-62
2023/02/23 11:02:30;;;;;;;36.50;19.47;;;;;;;;;;5057344;28;20568;-62
2023/02/23 11:04:59;;;;;;;39.20;20.03;;;;;;;;;;5060341;28;20230;-64
2023/02/23 11:07:30;;;;;;;28.30;18.40;;;;;;;;;;5060507;28;20221;-64
2023/02/23 11:09:58;;;;;;;31.70;18.03;;;;;;;;;;5041795;28;20223;-64
2023/02/23 11:12:28;;;;;;;29.60;17.17;;;;;;;;;;5040762;28;20234;-64
2023/02/23 11:14:57;;;;;;;29.67;18.33;;;;;;;;;;5042584;28;20667;-63
2023/02/23 11:17:29;;;;;;;31.17;17.87;;;;;;;;;;5050474;28;20538;-64
2023/02/23 11:20:02;;;;;;;34.17;18.77;;;;;;;;;;5048832;28;20203;-64
2023/02/23 11:22:35;;;;;;;33.37;18.03;;;;;;;;;;5053050;28;20204;-63
2023/02/23 11:25:11;;;;;;;30.43;19.03;;;;;;;;;;5051395;28;20238;-62
2023/02/23 11:27:39;;;;;;;33.23;18.77;;;;;;;;;;5040093;28;20655;-62
2023/02/23 11:30:11;;;;;;;34.93;19.70;;;;;;;;;;5039876;28;20231;-62
2023/02/23 11:32:41;;;;;;;33.23;19.37;;;;;;;;;;5046026;28;20240;-62
2023/02/23 11:35:15;;;;;;;31.13;19.33;;;;;;;;;;5039553;28;20710;-62
2023/02/23 11:37:43;;;;;;;33.10;18.80;;;;;;;;;;5041564;28;20290;-62
2023/02/23 11:40:21;;;;;;;33.07;19.63;;;;;;;;;;5044832;28;20230;-62
2023/02/23 11:42:53;;;;;;;29.10;19.07;;;;;;;;;;5045102;28;20234;-63
2023/02/23 11:45:22;;;;;;;32.40;19.23;;;;;;;;;;5040260;28;20215;-63
2023/02/23 11:47:53;;;;;;;30.60;17.67;;;;;;;;;;5039949;28;20243;-63
2023/02/23 11:50:25;;;;;;;29.20;18.50;;;;;;;;;;5039378;28;20292;-63
2023/02/23 11:52:56;;;;;;;28.43;18.50;;;;;;;;;;5039657;28;20266;-63
2023/02/23 11:55:24;;;;;;;31.50;18.63;;;;;;;;;;5039876;28;20214;-63
2023/02/23 11:57:55;;;;;;;30.87;17.57;;;;;;;;;;5039029;28;20214;-63
2023/02/23 12:00:26;;;;;;;32.67;19.50;;;;;;;;;;5039669;28;20552;-63
2023/02/23 12:02:57;;;;;;;32.40;18.33;;;;;;;;;;5049393;28;20298;-62
2023/02/23 12:05:27;;;;;;;31.03;18.63;;;;;;;;;;5059134;28;20638;-62
2023/02/23 12:07:57;;;;;;;33.37;18.83;;;;;;;;;;5059476;28;20576;-62
2023/02/23 12:10:27;;;;;;;34.63;19.43;;;;;;;;;;5059361;28;20679;-63
2023/02/23 12:13:00;;;;;;;33.37;20.00;;;;;;;;;;5059258;28;20234;-62
2023/02/23 12:15:32;;;;;;;31.10;18.23;;;;;;;;;;5059347;28;20569;-63
2023/02/23 12:18:05;;;;;;;34.40;18.70;;;;;;;;;;5059272;28;20290;-64
2023/02/23 12:20:37;;;;;;;43.23;18.60;;;;;;;;;;5048400;28;20210;-63
2023/02/23 12:23:07;;;;;;;32.37;19.60;;;;;;;;;;5039172;28;20289;-64
2023/02/23 12:25:39;;;;;;;34.87;19.87;;;;;;;;;;5043696;28;20203;-63
2023/02/23 12:28:12;;;;;;;30.03;18.67;;;;;;;;;;5040173;28;20244;-63
2023/02/23 12:30:48;;;;;;;32.23;17.70;;;;;;;;;;5039272;28;20227;-63
2023/02/23 12:33:20;;;;;;;31.63;17.47;;;;;;;;;;5039004;28;20702;-63
2023/02/23 12:35:53;;;;;;;27.23;16.97;;;;;;;;;;5042345;28;20241;-63
2023/02/23 12:38:31;;;;;;;28.33;18.20;;;;;;;;;;5055388;28;20199;-63
2023/02/23 12:41:02;;;;;;;34.03;18.40;;;;;;;;;;5058912;28;20203;-63
2023/02/23 12:43:35;;;;;;;33.63;18.63;;;;;;;;;;5058705;28;20234;-63
2023/02/23 12:46:09;;;;;;;34.57;19.57;;;;;;;;;;5059137;28;20207;-63
2023/02/23 12:48:43;;;;;;;31.23;20.73;;;;;;;;;;5058783;28;20212;-63
2023/02/23 12:51:16;;;;;;;39.17;19.77;;;;;;;;;;5058724;28;20252;-64
2023/02/23 12:53:46;;;;;;;38.47;19.77;;;;;;;;;;5058562;28;20231;-61
2023/02/23 12:56:34;;;;;;;28.97;19.53;;;;;;;;;;5058519;28;20222;-64
2023/02/23 12:59:20;;;;;;;34.53;18.07;;;;;;;;;;5058827;28;20218;-61
2023/02/23 13:01:50;;;;;;;32.20;18.60;;;;;;;;;;5058427;28;20199;-61
2023/02/23 13:04:45;;;;;;;34.80;19.83;;;;;;;;;;5057891;28;20249;-62
2023/02/23 13:07:19;;;;;;;27.57;16.97;;;;;;;;;;5023375;28;20217;-61
2023/02/23 13:09:53;;;;;;;34.00;19.03;;;;;;;;;;5058606;28;20210;-61
2023/02/23 13:12:29;;;;;;;35.13;18.73;;;;;;;;;;5058584;28;20226;-62
2023/02/23 13:15:00;;;;;;;33.93;17.27;;;;;;;;;;5058526;28;20238;-63
2023/02/23 13:17:31;;;;;;;28.27;17.47;;;;;;;;;;5058146;28;20203;-63
2023/02/23 13:20:03;;;;;;;32.57;17.70;;;;;;;;;;5058015;28;20211;-63
2023/02/23 13:22:39;;;;;;;28.37;17.30;;;;;;;;;;5041101;28;20204;-63
2023/02/23 13:25:16;;;;;;;30.90;16.90;;;;;;;;;;5038258;28;20290;-63
2023/02/23 13:27:49;;;;;;;27.53;17.67;;;;;;;;;;5047027;28;20229;-64
2023/02/23 13:30:19;;;;;;;29.63;18.47;;;;;;;;;;5058167;28;20215;-63
2023/02/23 13:32:47;;;;;;;35.47;17.97;;;;;;;;;;5058012;28;20317;-64
2023/02/23 13:35:16;;;;;;;28.60;17.63;;;;;;;;;;5057311;28;20230;-62
2023/02/23 13:37:48;;;;;;;30.63;16.67;;;;;;;;;;5058030;28;20211;-61
2023/02/23 13:40:22;;;;;;;31.00;17.47;;;;;;;;;;5039324;28;20231;-62
2023/02/23 13:42:57;;;;;;;23.77;14.93;;;;;;;;;;5038135;28;20255;-62
2023/02/23 13:45:38;;;;;;;29.37;16.57;;;;;;;;;;5038089;28;20214;-63
2023/02/23 13:48:12;;;;;;;28.80;15.50;;;;;;;;;;5037917;28;20204;-63
2023/02/23 13:50:45;;;;;;;30.60;17.13;;;;;;;;;;5037468;28;20290;-62
2023/02/23 13:53:28;;;;;;;26.40;16.37;;;;;;;;;;5037869;28;20742;-63
2023/02/23 13:55:58;;;;;;;30.80;16.07;;;;;;;;;;5038058;28;20203;-61
2023/02/23 13:58:28;;;;;;;27.10;16.20;;;;;;;;;;5037722;28;20212;-62
2023/02/23 14:01:10;;;;;;;28.10;15.67;;;;;;;;;;5037840;28;20229;-62
2023/02/23 14:03:47;;;;;;;24.07;15.27;;;;;;;;;;5037207;28;20306;-62
2023/02/23 14:06:15;;;;;;;23.53;14.53;;;;;;;;;;5037439;28;20730;-62
2023/02/23 14:08:51;;;;;;;24.87;14.30;;;;;;;;;;5037531;28;20583;-62
2023/02/23 14:11:43;;;;;;;30.47;14.87;;;;;;;;;;5037746;28;20227;-62
2023/02/23 14:14:12;;;;;;;28.40;16.23;;;;;;;;;;5032095;28;20223;-61
2023/02/23 14:16:40;;;;;;;23.67;14.97;;;;;;;;;;5037485;28;20207;-62
2023/02/23 14:19:14;;;;;;;25.83;15.87;;;;;;;;;;5039723;28;20262;-61
2023/02/23 14:21:44;;;;;;;30.93;14.43;;;;;;;;;;5047475;28;20199;-62
2023/02/23 14:24:21;;;;;;;20.43;12.60;;;;;;;;;;5041591;28;20239;-62
2023/02/23 14:27:07;;;;;;;25.43;13.00;;;;;;;;;;5042363;28;20293;-62
2023/02/23 14:29:39;;;;;;;23.23;12.87;;;;;;;;;;5061301;28;20206;-62
2023/02/23 14:32:25;;;;;;;22.93;11.60;;;;;;;;;;5061369;28;20226;-62
2023/02/23 14:34:55;;;;;;;19.77;11.83;;;;;;;;;;5060955;28;20247;-63
2023/02/23 14:37:25;;;;;;;19.67;11.10;;;;;;;;;;5061328;28;20747;-63
2023/02/23 14:39:55;;;;;;;16.03;10.60;;;;;;;;;;5059265;28;20214;-61
2023/02/23 14:42:25;;;;;;;17.20;10.47;;;;;;;;;;5061390;28;20283;-62
2023/02/23 14:44:54;;;;;;;19.40;10.80;;;;;;;;;;5061292;28;20264;-61
2023/02/23 14:47:23;;;;;;;22.97;11.67;;;;;;;;;;5061294;28;20210;-60
2023/02/23 14:49:52;;;;;;;18.07;10.50;;;;;;;;;;5060916;28;20210;-63
2023/02/23 14:52:23;;;;;;;18.27;10.40;;;;;;;;;;5060915;28;20766;-62
2023/02/23 14:54:51;;;;;;;19.67;9.37;;;;;;;;;;5060960;28;20225;-62
2023/02/23 14:57:22;;;;;;;19.03;10.07;;;;;;;;;;5060775;28;20617;-62
2023/02/23 14:59:54;;;;;;;18.50;9.03;;;;;;;;;;5061069;28;20202;-62
2023/02/23 15:02:23;;;;;;;19.57;9.53;;;;;;;;;;5060936;28;20225;-62
2023/02/23 15:04:51;;;;;;;26.40;10.33;;;;;;;;;;5060324;28;20570;-62
2023/02/23 15:07:22;;;;;;;32.90;12.67;;;;;;;;;;5060554;28;20616;-61
2023/02/23 15:09:51;;;;;;;35.67;13.73;;;;;;;;;;5060926;28;20294;-62
2023/02/23 15:12:22;;;;;;;19.67;10.00;;;;;;;;;;5060457;28;20714;-61
2023/02/23 15:14:50;;;;;;;17.00;10.00;;;;;;;;;;5060825;28;20241;-61
2023/02/23 15:17:19;;;;;;;16.80;8.77;;;;;;;;;;5060418;28;20575;-61
2023/02/23 15:19:48;;;;;;;18.70;9.03;;;;;;;;;;5060183;28;20294;-62
2023/02/23 15:22:21;;;;;;;16.87;9.93;;;;;;;;;;5040875;28;20204;-62
2023/02/23 15:24:50;;;;;;;18.17;10.00;;;;;;;;;;5040686;28;20204;-62
2023/02/23 15:27:19;;;;;;;19.50;10.43;;;;;;;;;;5045298;28;20286;-63
2023/02/23 15:29:48;;;;;;;19.90;9.80;;;;;;;;;;5060243;28;20211;-63
2023/02/23 15:32:21;;;;;;;16.10;9.30;;;;;;;;;;5059384;28;20235;-63
2023/02/23 15:34:49;;;;;;;21.40;9.37;;;;;;;;;;5059272;28;20239;-61
2023/02/23 15:37:20;;;;;;;23.43;10.30;;;;;;;;;;5059993;28;20207;-62
2023/02/23 15:39:52;;;;;;;17.30;9.53;;;;;;;;;;5046738;28;20231;-63
2023/02/23 15:42:23;;;;;;;13.10;9.53;;;;;;;;;;5050411;28;20200;-63
2023/02/23 15:44:58;;;;;;;18.73;10.70;;;;;;;;;;5047466;28;20283;-61
2023/02/23 15:47:28;;;;;;;20.77;10.13;;;;;;;;;;5039865;28;20301;-63
2023/02/23 15:50:07;;;;;;;16.63;9.93;;;;;;;;;;5039447;28;20644;-63
2023/02/23 15:52:42;;;;;;;23.73;10.33;;;;;;;;;;5044769;28;20231;-63
2023/02/23 15:55:15;;;;;;;19.20;10.50;;;;;;;;;;5047327;28;20566;-62
2023/02/23 15:57:46;;;;;;;19.33;8.93;;;;;;;;;;5051668;28;20217;-63